Time;durP1;ratioP1;P1;durP2;ratioP2;P2;SDS_P1;SDS_P2;PMS_P1;PMS_P2;Temp;Humidity;BMP_temperature;BMP_pressure;BME280_temperature;BME280_humidity;BME280_pressure;Samples;Min_cycle;Max_cycle;Signal;HPM_P1;HPM_P2
2021/09/05 00:00:07;;;;;;;10.33;4.47;;;12.40;99.90;;;;;;4964449;28;20239;-87
2021/09/05 00:02:33;;;;;;;7.93;4.43;;;12.50;99.90;;;;;;4964060;28;20247;-87
2021/09/05 00:04:59;;;;;;;11.93;4.60;;;12.50;99.90;;;;;;4965191;28;20236;-88
2021/09/05 00:07:24;;;;;;;14.90;4.90;;;12.30;99.90;;;;;;4981038;28;20250;-87
2021/09/05 00:09:50;;;;;;;6.63;3.77;;;12.20;99.90;;;;;;4965988;28;20209;-86
2021/09/05 00:12:16;;;;;;;9.50;4.43;;;12.20;99.90;;;;;;4964819;28;20689;-86
2021/09/05 00:14:42;;;;;;;7.40;4.03;;;12.20;99.90;;;;;;4964724;28;20307;-86
2021/09/05 00:17:07;;;;;;;12.83;4.17;;;12.30;99.90;;;;;;4965502;28;20303;-88
2021/09/05 00:19:33;;;;;;;10.73;4.40;;;12.30;99.90;;;;;;4965270;28;20242;-88
2021/09/05 00:21:59;;;;;;;7.27;4.77;;;12.40;99.90;;;;;;4981171;28;20283;-87
2021/09/05 00:24:25;;;;;;;6.93;4.67;;;12.50;99.90;;;;;;4965768;28;20199;-87
2021/09/05 00:26:50;;;;;;;9.00;6.03;;;12.50;99.90;;;;;;4964885;28;20228;-89
2021/09/05 00:29:17;;;;;;;10.93;4.50;;;12.40;99.90;;;;;;4965056;28;20738;-87
2021/09/05 00:31:43;;;;;;;10.40;4.30;;;12.50;99.90;;;;;;4964968;28;20303;-86
2021/09/05 00:34:09;;;;;;;8.73;4.17;;;12.50;99.90;;;;;;4964369;28;20239;-87
2021/09/05 00:36:35;;;;;;;8.27;3.70;;;12.50;99.90;;;;;;4964507;28;20741;-87
2021/09/05 00:39:01;;;;;;;9.50;5.27;;;12.40;99.90;;;;;;4948409;28;20274;-87
2021/09/05 00:41:27;;;;;;;6.23;3.97;;;12.40;99.90;;;;;;4964543;28;20244;-88
2021/09/05 00:44:04;;;;;;;6.47;3.57;;;12.40;99.90;;;;;;4981167;28;20224;-88
2021/09/05 00:46:31;;;;;;;5.93;2.80;;;12.30;99.90;;;;;;4981653;28;20283;-88
2021/09/05 00:48:57;;;;;;;4.80;2.53;;;12.20;99.90;;;;;;4981043;28;20226;-88
2021/09/05 00:51:29;;;;;;;7.90;2.97;;;12.20;99.90;;;;;;4965106;28;20267;-87
2021/09/05 00:53:54;;;;;;;10.33;3.80;;;12.20;99.90;;;;;;4966202;28;20313;-86
2021/09/05 00:56:20;;;;;;;9.07;3.63;;;12.30;99.90;;;;;;4964558;28;20320;-85
2021/09/05 00:58:46;;;;;;;13.33;3.97;;;12.30;99.90;;;;;;4964278;28;20221;-86
2021/09/05 01:01:13;;;;;;;6.10;3.27;;;12.20;99.90;;;;;;4965097;28;20251;-86
2021/09/05 01:03:40;;;;;;;5.23;2.17;;;12.20;99.90;;;;;;4965565;28;20255;-86
2021/09/05 01:06:06;;;;;;;9.03;3.30;;;12.20;99.90;;;;;;4964408;28;20248;-87
2021/09/05 01:08:32;;;;;;;4.47;2.83;;;12.10;99.90;;;;;;4964522;28;20216;-86
2021/09/05 01:10:58;;;;;;;4.47;2.70;;;12.10;99.90;;;;;;4965339;28;20287;-87
2021/09/05 01:13:25;;;;;;;5.53;3.37;;;12.10;99.90;;;;;;4964402;28;20618;-87
2021/09/05 01:15:50;;;;;;;9.23;4.57;;;12.10;99.90;;;;;;4980469;28;20471;-87
2021/09/05 01:18:16;;;;;;;5.17;3.30;;;12.20;99.90;;;;;;4964059;28;20255;-88
2021/09/05 01:20:42;;;;;;;7.03;3.10;;;12.20;99.90;;;;;;4981019;28;20710;-86
2021/09/05 01:23:08;;;;;;;8.37;3.17;;;12.10;99.90;;;;;;4981000;28;20705;-87
2021/09/05 01:25:33;;;;;;;4.83;2.23;;;12.00;99.90;;;;;;4964490;28;20278;-87
2021/09/05 01:27:59;;;;;;;7.33;2.53;;;12.00;99.90;;;;;;4980241;28;20239;-85
2021/09/05 01:30:25;;;;;;;6.43;1.93;;;11.90;99.90;;;;;;4964858;28;20192;-88
2021/09/05 01:32:50;;;;;;;49.53;2.90;;;11.90;99.90;;;;;;4965399;28;20609;-89
2021/09/05 01:35:16;;;;;;;9.23;2.87;;;11.80;99.90;;;;;;4981933;28;20216;-87
2021/09/05 01:37:42;;;;;;;1.13;0.80;;;11.70;99.90;;;;;;4982605;28;20239;-86
2021/09/05 01:40:08;;;;;;;5.43;2.70;;;11.60;99.90;;;;;;4966009;28;20708;-87
2021/09/05 01:42:34;;;;;;;5.47;3.53;;;11.50;99.90;;;;;;4966114;28;20240;-88
2021/09/05 01:45:00;;;;;;;4.43;2.40;;;11.60;99.90;;;;;;4965126;28;20383;-86
2021/09/05 01:47:25;;;;;;;4.77;2.03;;;11.60;99.90;;;;;;4967197;28;20262;-87
2021/09/05 01:49:51;;;;;;;3.07;1.97;;;11.70;99.90;;;;;;4970026;28;20577;-89
2021/09/05 01:52:17;;;;;;;6.27;2.67;;;11.70;99.90;;;;;;4985867;28;20337;-89
2021/09/05 01:54:43;;;;;;;3.63;2.73;;;11.60;99.90;;;;;;4972140;28;20185;-89
2021/09/05 01:57:09;;;;;;;5.73;2.67;;;11.60;99.90;;;;;;4985398;28;20797;-87
2021/09/05 01:59:34;;;;;;;3.87;2.60;;;11.50;99.90;;;;;;4968200;28;20229;-90
2021/09/05 02:02:00;;;;;;;6.23;2.90;;;11.50;99.90;;;;;;4953278;28;20221;-90
2021/09/05 02:04:26;;;;;;;4.03;2.87;;;11.50;99.90;;;;;;4967319;28;20217;-89
2021/09/05 02:06:51;;;;;;;6.53;3.03;;;11.60;99.90;;;;;;4968910;28;20200;-87
2021/09/05 02:09:17;;;;;;;9.93;4.20;;;11.50;99.90;;;;;;4983458;28;20229;-87
2021/09/05 02:11:43;;;;;;;9.50;3.27;;;11.50;99.90;;;;;;4983063;28;20220;-86
2021/09/05 02:14:08;;;;;;;9.53;4.00;;;11.50;99.90;;;;;;4967202;28;20247;-87
2021/09/05 02:16:34;;;;;;;5.83;3.43;;;11.50;99.90;;;;;;4951175;28;20227;-86
2021/09/05 02:19:02;;;;;;;4.00;1.33;;;11.50;99.90;;;;;;4969713;28;20553;-88
2021/09/05 02:21:28;;;;;;;2.67;1.87;;;11.40;99.90;;;;;;4971718;28;20192;-86
2021/09/05 02:23:54;;;;;;;2.03;1.83;;;11.40;99.90;;;;;;4973163;28;20227;-87
2021/09/05 02:26:19;;;;;;;2.67;1.90;;;11.40;99.90;;;;;;4970535;28;20227;-88
2021/09/05 02:28:45;;;;;;;3.03;2.03;;;11.40;99.90;;;;;;4987621;28;20713;-89
2021/09/05 02:31:11;;;;;;;7.40;3.47;;;11.40;99.90;;;;;;4987081;28;20525;-85
2021/09/05 02:33:37;;;;;;;3.60;2.83;;;11.40;99.90;;;;;;4979520;28;20236;-87
2021/09/05 02:36:03;;;;;;;10.23;4.30;;;11.40;99.90;;;;;;4969809;28;20224;-86
2021/09/05 02:38:29;;;;;;;7.70;3.50;;;11.50;99.90;;;;;;4971299;28;20424;-87
2021/09/05 02:40:55;;;;;;;8.93;3.97;;;11.50;99.90;;;;;;4972098;28;20705;-87
2021/09/05 02:43:21;;;;;;;12.07;3.43;;;11.50;99.90;;;;;;4983117;28;20270;-87
2021/09/05 02:45:47;;;;;;;14.50;5.20;;;11.60;99.90;;;;;;4935383;28;20323;-88
2021/09/05 02:48:13;;;;;;;49.37;6.60;;;11.60;99.90;;;;;;4950234;28;20228;-87
2021/09/05 02:50:39;;;;;;;8.30;3.67;;;11.70;99.90;;;;;;4967661;28;20686;-88
2021/09/05 02:53:04;;;;;;;9.07;3.90;;;11.80;99.90;;;;;;4965611;28;20659;-87
2021/09/05 02:55:30;;;;;;;10.43;4.97;;;11.80;99.90;;;;;;4965168;28;20315;-86
2021/09/05 02:57:56;;;;;;;8.60;3.67;;;11.80;99.90;;;;;;4965694;28;20200;-87
2021/09/05 03:00:22;;;;;;;18.27;4.10;;;11.80;99.90;;;;;;4965189;28;20673;-87
2021/09/05 03:02:48;;;;;;;40.10;4.07;;;11.80;99.90;;;;;;4981712;28;20271;-88
2021/09/05 03:05:13;;;;;;;6.53;3.37;;;11.80;99.90;;;;;;4965030;28;20686;-86
2021/09/05 03:07:39;;;;;;;3.73;3.37;;;11.80;99.90;;;;;;4974198;28;20225;-87
2021/09/05 03:10:05;;;;;;;21.60;4.63;;;11.80;99.90;;;;;;4949340;28;20267;-86
2021/09/05 03:12:31;;;;;;;3.63;2.60;;;11.80;99.90;;;;;;4965564;28;20200;-87
2021/09/05 03:14:57;;;;;;;4.70;3.03;;;11.70;99.90;;;;;;4965909;28;20220;-86
2021/09/05 03:17:22;;;;;;;8.20;3.60;;;11.70;99.90;;;;;;4966230;28;20271;-87
2021/09/05 03:19:48;;;;;;;12.93;2.93;;;11.70;99.90;;;;;;4983389;28;20740;-88
2021/09/05 03:22:14;;;;;;;35.03;4.43;;;11.80;99.90;;;;;;4966871;28;20559;-86
2021/09/05 03:24:40;;;;;;;53.83;3.80;;;11.70;99.90;;;;;;4983556;28;20508;-89
2021/09/05 03:27:05;;;;;;;8.00;2.37;;;11.70;99.90;;;;;;4982805;28;20610;-85
2021/09/05 03:29:31;;;;;;;18.40;2.70;;;11.70;99.90;;;;;;4983508;28;20221;-87
2021/09/05 03:31:57;;;;;;;22.50;2.97;;;11.70;99.90;;;;;;4982723;28;20675;-86
2021/09/05 03:34:22;;;;;;;61.53;3.83;;;11.80;99.90;;;;;;4981526;28;20222;-86
2021/09/05 03:36:48;;;;;;;15.90;2.33;;;11.80;99.90;;;;;;4967850;28;20254;-89
2021/09/05 03:39:14;;;;;;;58.63;5.57;;;11.70;99.90;;;;;;4967224;28;20294;-86
2021/09/05 03:41:40;;;;;;;26.57;2.43;;;11.60;99.90;;;;;;4966489;28;20841;-88
2021/09/05 03:44:05;;;;;;;20.73;4.00;;;11.50;99.90;;;;;;4951552;28;20221;-89
2021/09/05 03:46:31;;;;;;;9.83;2.57;;;11.60;99.90;;;;;;4966685;28;20217;-88
2021/09/05 03:48:57;;;;;;;13.50;3.90;;;11.60;99.90;;;;;;4968385;28;20748;-88
2021/09/05 03:51:22;;;;;;;14.17;3.43;;;11.50;99.90;;;;;;4967762;28;20232;-87
2021/09/05 03:53:48;;;;;;;16.37;2.13;;;11.50;99.90;;;;;;4967770;28;20524;-86
2021/09/05 03:56:14;;;;;;;32.80;3.93;;;11.40;99.90;;;;;;4983747;28;20282;-88
2021/09/05 03:58:39;;;;;;;24.00;2.50;;;11.40;99.90;;;;;;4967134;28;20227;-88
2021/09/05 04:01:05;;;;;;;22.13;2.67;;;11.30;99.90;;;;;;4983714;28;20229;-87
2021/09/05 04:03:31;;;;;;;47.07;4.53;;;11.10;99.90;;;;;;4951774;28;20197;-87
2021/09/05 04:05:57;;;;;;;11.47;1.93;;;11.00;99.90;;;;;;4982646;28;20259;-88
2021/09/05 04:11:17;;;;;;;59.97;2.90;;;10.90;99.90;;;;;;4963445;28;20239;-87
2021/09/05 04:13:43;;;;;;;59.03;3.03;;;10.80;99.90;;;;;;4968559;28;20629;-87
2021/09/05 04:16:09;;;;;;;22.80;2.40;;;10.80;99.90;;;;;;4966976;28;20677;-86
2021/09/05 04:18:35;;;;;;;32.20;3.87;;;10.80;99.90;;;;;;4967638;28;20706;-89
2021/09/05 04:21:01;;;;;;;25.93;3.20;;;10.70;99.90;;;;;;4966820;28;20236;-89
2021/09/05 04:23:26;;;;;;;51.77;3.80;;;10.70;99.90;;;;;;4967443;28;20248;-88
2021/09/05 04:25:52;;;;;;;46.83;3.83;;;10.70;99.90;;;;;;4968124;28;20224;-87
2021/09/05 04:28:18;;;;;;;38.23;3.17;;;10.70;99.90;;;;;;4968766;28;20252;-86
2021/09/05 04:30:43;;;;;;;47.63;3.53;;;10.70;99.90;;;;;;4984384;28;20188;-89
2021/09/05 04:33:10;;;;;;;39.63;3.27;;;10.70;99.90;;;;;;4966831;28;20208;-85
2021/09/05 04:35:36;;;;;;;63.93;4.17;;;10.80;99.90;;;;;;4983907;28;20244;-87
2021/09/05 04:38:01;;;;;;;19.00;3.13;;;10.90;99.90;;;;;;4958919;28;20212;-87
2021/09/05 04:40:27;;;;;;;41.07;4.27;;;10.90;99.90;;;;;;4967881;28;20694;-88
2021/09/05 04:42:53;;;;;;;35.30;3.33;;;10.80;99.90;;;;;;4967705;28;20653;-90
2021/09/05 04:45:18;;;;;;;15.43;3.40;;;10.70;99.90;;;;;;4983331;28;20228;-88
2021/09/05 04:47:44;;;;;;;27.60;3.23;;;10.60;99.90;;;;;;4966762;28;20638;-89
2021/09/05 04:50:10;;;;;;;41.13;4.07;;;10.60;99.90;;;;;;4968545;28;20235;-88
2021/09/05 04:52:36;;;;;;;48.23;5.87;;;10.80;99.90;;;;;;4966954;28;20217;-88
2021/09/05 04:55:02;;;;;;;7.17;3.33;;;10.80;99.90;;;;;;4966843;28;20192;-89
2021/09/05 04:57:28;;;;;;;44.83;5.30;;;10.90;99.90;;;;;;4966145;28;20204;-87
2021/09/05 04:59:54;;;;;;;65.03;6.57;;;10.90;99.90;;;;;;4965902;28;20228;-87
2021/09/05 05:02:19;;;;;;;42.47;4.57;;;10.90;99.90;;;;;;4964919;28;20224;-87
2021/09/05 05:04:45;;;;;;;20.37;5.20;;;11.00;99.90;;;;;;4973279;28;20231;-88
2021/09/05 05:07:11;;;;;;;14.43;4.27;;;11.10;99.90;;;;;;4966056;28;20287;-87
2021/09/05 05:09:43;;;;;;;10.73;2.90;;;11.10;99.90;;;;;;4966304;28;20654;-88
2021/09/05 05:12:10;;;;;;;13.87;3.00;;;11.10;99.90;;;;;;4964108;28;20217;-88
2021/09/05 05:14:36;;;;;;;5.50;3.00;;;11.10;99.90;;;;;;4981215;28;20817;-87
2021/09/05 05:17:02;;;;;;;17.33;3.63;;;11.20;99.90;;;;;;4966111;28;20266;-87
2021/09/05 05:19:27;;;;;;;17.73;4.80;;;11.30;99.90;;;;;;4971863;28;20237;-87
2021/09/05 05:21:53;;;;;;;26.37;5.03;;;11.30;99.90;;;;;;4982434;28;20281;-87
2021/09/05 05:24:19;;;;;;;13.67;3.97;;;11.40;99.90;;;;;;4968542;28;20230;-88
2021/09/05 05:26:45;;;;;;;12.17;4.07;;;11.30;99.90;;;;;;4968622;28;20638;-88
2021/09/05 05:29:10;;;;;;;30.40;4.13;;;11.30;99.90;;;;;;4967902;28;20223;-89
2021/09/05 05:31:36;;;;;;;13.47;3.13;;;11.40;99.90;;;;;;4985056;28;20209;-87
2021/09/05 05:34:02;;;;;;;22.27;3.60;;;11.50;99.90;;;;;;4968857;28;20620;-88
2021/09/05 05:36:27;;;;;;;93.60;4.80;;;11.50;99.90;;;;;;4984734;28;20263;-89
2021/09/05 05:38:53;;;;;;;39.33;5.07;;;11.60;99.90;;;;;;4968038;28;20228;-88
2021/09/05 05:41:19;;;;;;;21.27;3.80;;;11.70;99.90;;;;;;4967229;28;20232;-88
2021/09/05 05:43:45;;;;;;;23.53;2.93;;;11.80;99.90;;;;;;4983386;28;20244;-89
2021/09/05 05:46:11;;;;;;;8.50;3.30;;;11.70;99.90;;;;;;4969437;28;20224;-88
2021/09/05 05:48:37;;;;;;;11.50;3.50;;;11.60;99.90;;;;;;4968109;28;20193;-89
2021/09/05 05:51:03;;;;;;;13.60;3.67;;;11.60;99.90;;;;;;4984299;28;20248;-90
2021/09/05 05:53:29;;;;;;;24.43;4.10;;;11.80;99.90;;;;;;4968663;28;20224;-87
2021/09/05 05:55:54;;;;;;;9.17;3.67;;;12.20;99.90;;;;;;4969429;28;20228;-87
2021/09/05 05:58:21;;;;;;;24.13;3.93;;;12.70;99.90;;;;;;4951731;28;20228;-87
2021/09/05 06:00:47;;;;;;;36.03;5.67;;;13.10;99.90;;;;;;4968639;28;20221;-89
2021/09/05 06:03:13;;;;;;;4.43;3.23;;;13.70;99.90;;;;;;4983323;28;20315;-90
2021/09/05 06:05:39;;;;;;;15.07;3.60;;;14.40;99.90;;;;;;4966502;28;20316;-87
2021/09/05 06:08:04;;;;;;;17.60;4.43;;;14.80;99.90;;;;;;4967797;28;20690;-90
2021/09/05 06:10:32;;;;;;;20.63;4.07;;;15.40;99.90;;;;;;4967634;28;20232;-89
2021/09/05 06:12:58;;;;;;;10.20;3.67;;;16.30;99.90;;;;;;4967646;28;20660;-86
2021/09/05 06:15:24;;;;;;;6.23;4.17;;;17.40;99.90;;;;;;4957509;28;20725;-89
2021/09/05 06:17:50;;;;;;;16.90;3.60;;;18.10;99.90;;;;;;4967147;28;20224;-91
2021/09/05 06:20:18;;;;;;;2.90;2.00;;;19.30;99.90;;;;;;4983710;28;20228;-89
2021/09/05 06:22:44;;;;;;;4.17;2.70;;;19.80;99.90;;;;;;4967299;28;20228;-92
2021/09/05 06:25:10;;;;;;;2.73;2.27;;;18.70;99.90;;;;;;4967043;28;20177;-90
2021/09/05 06:27:36;;;;;;;5.97;2.90;;;17.60;99.90;;;;;;4983476;28;20204;-91
2021/09/05 06:30:02;;;;;;;5.70;3.30;;;16.80;99.90;;;;;;4966034;28;20224;-90
2021/09/05 06:32:28;;;;;;;5.97;3.90;;;16.20;99.90;;;;;;4980874;28;20387;-92
2021/09/05 06:34:55;;;;;;;9.70;4.27;;;16.00;99.90;;;;;;4965970;28;20212;-91
2021/09/05 06:37:21;;;;;;;8.83;4.43;;;15.90;99.90;;;;;;4966678;28;20307;-88
2021/09/05 06:39:47;;;;;;;9.23;5.37;;;15.80;99.90;;;;;;4968232;28;20220;-89
2021/09/05 06:42:13;;;;;;;8.80;5.70;;;15.70;99.90;;;;;;4966518;28;20718;-88
2021/09/05 06:44:39;;;;;;;13.57;6.10;;;15.50;99.90;;;;;;4966733;28;20228;-92
2021/09/05 06:47:05;;;;;;;11.20;6.07;;;15.40;99.90;;;;;;4951419;28;20227;-90
2021/09/05 06:49:31;;;;;;;7.13;5.33;;;15.40;99.90;;;;;;4951523;28;20332;-91
2021/09/05 06:51:57;;;;;;;10.73;5.97;;;15.70;99.90;;;;;;4967992;28;20867;-87
2021/09/05 06:54:23;;;;;;;9.17;5.37;;;17.10;99.90;;;;;;4966311;28;20220;-86
2021/09/05 06:56:49;;;;;;;6.97;5.03;;;19.10;99.90;;;;;;4966591;28;20760;-91
2021/09/05 06:59:17;;;;;;;9.27;5.43;;;20.80;99.90;;;;;;4967318;28;20224;-92
2021/09/05 07:01:43;;;;;;;9.40;5.50;;;22.30;99.90;;;;;;4982648;28;20219;-90
2021/09/05 07:04:09;;;;;;;11.03;5.93;;;23.50;99.90;;;;;;4965978;28;20193;-89
2021/09/05 07:06:37;;;;;;;7.43;4.70;;;24.30;99.90;;;;;;4967607;28;20192;-92
2021/09/05 07:09:06;;;;;;;8.43;6.03;;;24.50;99.90;;;;;;4965342;28;20574;-91
2021/09/05 07:11:34;;;;;;;11.37;5.90;;;24.30;99.90;;;;;;4964500;28;20228;-90
2021/09/05 07:14:03;;;;;;;11.77;5.45;;;23.60;99.90;;;;;;4965336;28;20235;-92
2021/09/05 07:16:28;;;;;;;8.90;5.60;;;23.10;99.90;;;;;;4965625;28;20252;-90
2021/09/05 07:18:54;;;;;;;12.55;5.43;;;23.10;99.90;;;;;;4965997;28;20185;-91
2021/09/05 07:21:20;;;;;;;12.20;6.35;;;23.10;99.90;;;;;;4966152;28;20683;-92
2021/09/05 07:23:46;;;;;;;10.90;6.40;;;24.10;99.90;;;;;;4966142;28;20216;-90
2021/09/05 07:26:12;;;;;;;9.60;5.78;;;24.90;99.90;;;;;;4965960;28;20335;-92
2021/09/05 07:28:40;;;;;;;11.07;6.38;;;25.40;99.90;;;;;;4966503;28;20535;-91
2021/09/05 07:31:06;;;;;;;11.60;6.82;;;25.30;99.90;;;;;;4973623;28;20709;-89
2021/09/05 07:33:32;;;;;;;9.85;5.90;;;25.40;99.90;;;;;;4983269;28;20239;-90
2021/09/05 07:35:58;;;;;;;11.73;6.75;;;24.60;99.90;;;;;;4966100;28;20212;-91
2021/09/05 07:38:24;;;;;;;13.68;6.68;;;23.40;99.90;;;;;;4966640;28;20769;-90
2021/09/05 07:40:50;;;;;;;10.05;6.53;;;23.30;99.90;;;;;;4965344;28;20235;-91
2021/09/05 07:43:16;;;;;;;7.72;5.43;;;24.20;99.90;;;;;;4966480;28;20228;-90
2021/09/05 07:45:42;;;;;;;13.77;6.65;;;24.00;99.90;;;;;;4967244;28;20650;-90
2021/09/05 07:48:08;;;;;;;11.50;6.60;;;23.90;99.90;;;;;;4966410;28;20220;-91
2021/09/05 07:50:34;;;;;;;9.20;6.55;;;24.10;99.90;;;;;;4966089;28;20232;-89
2021/09/05 07:53:00;;;;;;;11.70;6.32;;;25.10;99.90;;;;;;4966119;28;20219;-89
2021/09/05 07:55:25;;;;;;;12.45;6.85;;;25.20;99.90;;;;;;4982011;28;20228;-89
2021/09/05 07:57:51;;;;;;;11.90;6.88;;;24.70;99.90;;;;;;4966813;28;20235;-89
2021/09/05 08:00:17;;;;;;;13.25;7.07;;;25.30;99.90;;;;;;4965905;28;20239;-91
2021/09/05 08:02:43;;;;;;;14.52;7.15;;;25.40;99.90;;;;;;4966126;28;20713;-88
2021/09/05 08:05:10;;;;;;;10.25;5.88;;;25.70;99.90;;;;;;4965134;28;20226;-89
2021/09/05 08:07:36;;;;;;;13.43;6.95;;;25.40;99.90;;;;;;4965049;28;20303;-89
2021/09/05 08:10:03;;;;;;;14.88;6.53;;;25.60;99.90;;;;;;4964707;28;20287;-89
2021/09/05 08:12:29;;;;;;;9.07;5.78;;;24.80;99.90;;;;;;4966727;28;20387;-89
2021/09/05 08:14:55;;;;;;;9.23;5.35;;;24.80;99.90;;;;;;4964598;28;20678;-87
2021/09/05 08:17:20;;;;;;;15.05;6.05;;;25.10;99.90;;;;;;4965135;28;20225;-89
2021/09/05 08:19:48;;;;;;;11.50;6.40;;;24.80;99.90;;;;;;4964245;28;20239;-89
2021/09/05 08:22:14;;;;;;;12.48;6.18;;;24.40;99.90;;;;;;4980926;28;20193;-90
2021/09/05 08:24:40;;;;;;;9.73;5.90;;;25.10;99.90;;;;;;4981236;28;20196;-88
2021/09/05 08:27:06;;;;;;;10.88;5.65;;;25.70;99.90;;;;;;4949394;28;20940;-87
2021/09/05 08:29:32;;;;;;;9.38;4.88;;;25.80;99.90;;;;;;4964851;28;20743;-89
2021/09/05 08:31:58;;;;;;;8.93;5.30;;;25.60;99.90;;;;;;4965123;28;20678;-89
2021/09/05 08:34:24;;;;;;;8.63;5.03;;;25.50;99.90;;;;;;4971104;28;20275;-87
2021/09/05 08:36:49;;;;;;;9.07;5.53;;;25.70;99.90;;;;;;4965301;28;20185;-86
2021/09/05 08:39:15;;;;;;;10.30;5.45;;;25.30;99.90;;;;;;4963849;28;20223;-90
2021/09/05 08:41:41;;;;;;;8.95;4.88;;;25.70;99.90;;;;;;4963370;28;20217;-90
2021/09/05 08:44:07;;;;;;;10.38;5.43;;;25.70;99.90;;;;;;4979980;28;20216;-92
2021/09/05 08:46:33;;;;;;;9.13;4.90;;;25.30;99.90;;;;;;4958424;28;20228;-89
2021/09/05 08:49:03;;;;;;;10.63;5.65;;;25.60;99.90;;;;;;4948089;28;20712;-90
2021/09/05 08:51:29;;;;;;;8.88;4.72;;;25.10;99.90;;;;;;4966445;28;20185;-89
2021/09/05 08:53:58;;;;;;;8.77;5.35;;;24.50;99.90;;;;;;4964617;28;20376;-89
2021/09/05 08:56:24;;;;;;;9.18;5.20;;;23.90;99.90;;;;;;4964463;28;20250;-89
2021/09/05 08:58:50;;;;;;;9.75;4.82;;;24.30;99.90;;;;;;4965168;28;20223;-90
2021/09/05 09:01:29;;;;;;;10.90;5.07;;;24.40;99.90;;;;;;4981342;28;20798;-89
2021/09/05 09:04:12;;;;;;;9.57;5.18;;;23.60;99.90;;;;;;4965175;28;20700;-89
2021/09/05 09:06:40;;;;;;;10.35;5.20;;;22.80;99.90;;;;;;4948540;28;20208;-86
2021/09/05 09:09:07;;;;;;;8.48;4.70;;;22.90;99.90;;;;;;4964617;28;20220;-88
2021/09/05 09:11:56;;;;;;;7.68;5.13;;;23.10;99.90;;;;;;4963978;28;20231;-89
2021/09/05 09:14:24;;;;;;;9.38;5.78;;;23.60;99.90;;;;;;4964041;28;20246;-88
2021/09/05 09:16:51;;;;;;;7.00;4.63;;;23.70;99.90;;;;;;4963974;28;20312;-88
2021/09/05 09:19:25;;;;;;;10.32;6.13;;;24.30;99.90;;;;;;4962727;28;20193;-88
2021/09/05 09:21:51;;;;;;;10.65;5.35;;;23.80;99.90;;;;;;4981036;28;20756;-89
2021/09/05 09:24:21;;;;;;;10.93;5.47;;;23.70;99.90;;;;;;4964612;28;20247;-89
2021/09/05 09:27:03;;;;;;;10.30;5.88;;;23.90;99.90;;;;;;4963960;28;20220;-88
2021/09/05 09:29:30;;;;;;;10.25;5.50;;;24.70;99.90;;;;;;4964137;28;20287;-88
2021/09/05 09:32:05;;;;;;;11.68;5.72;;;24.70;99.90;;;;;;4964113;28;20217;-88
2021/09/05 09:34:41;;;;;;;10.90;5.53;;;25.00;99.90;;;;;;4964501;28;21116;-89
2021/09/05 09:37:21;;;;;;;9.60;4.95;;;24.80;99.90;;;;;;4980610;28;20231;-89
2021/09/05 09:39:56;;;;;;;9.32;5.47;;;25.40;99.90;;;;;;4981884;28;20204;-89
2021/09/05 09:42:41;;;;;;;11.48;5.60;;;25.20;99.90;;;;;;4981005;28;20498;-88
2021/09/05 09:45:17;;;;;;;10.27;5.50;;;23.30;99.90;;;;;;4964565;28;20266;-91
2021/09/05 09:47:49;;;;;;;11.68;6.40;;;23.30;99.90;;;;;;4965198;28;20224;-88
2021/09/05 09:50:17;;;;;;;10.23;6.22;;;24.10;99.90;;;;;;4966302;28;20326;-88
2021/09/05 09:52:46;;;;;;;10.50;5.32;;;23.70;99.90;;;;;;4965035;28;20221;-87
2021/09/05 09:55:13;;;;;;;12.85;6.60;;;24.30;99.90;;;;;;4964965;28;20667;-90
2021/09/05 09:57:39;;;;;;;7.78;5.07;;;25.40;99.90;;;;;;4981675;28;20655;-89
2021/09/05 10:00:06;;;;;;;12.10;6.30;;;25.20;99.90;;;;;;4964020;28;20256;-90
2021/09/05 10:02:38;;;;;;;14.23;6.55;;;25.60;99.90;;;;;;4965100;28;20209;-88
2021/09/05 10:05:04;;;;;;;11.38;6.10;;;25.40;99.90;;;;;;4980604;28;20217;-88
2021/09/05 10:07:32;;;;;;;13.32;6.82;;;25.90;99.90;;;;;;4973163;28;20225;-87
2021/09/05 10:10:02;;;;;;;14.63;6.70;;;23.90;99.90;;;;;;4968290;28;20665;-88
2021/09/05 10:12:30;;;;;;;12.82;7.15;;;23.00;99.90;;;;;;4969067;28;21148;-88
2021/09/05 10:14:57;;;;;;;12.45;6.85;;;23.50;99.90;;;;;;4984693;28;20682;-85
2021/09/05 10:17:24;;;;;;;11.45;4.88;;;23.80;99.90;;;;;;4985533;28;20232;-89
2021/09/05 10:19:51;;;;;;;8.48;5.25;;;23.70;99.90;;;;;;4968497;28;20232;-88
2021/09/05 10:22:22;;;;;;;9.50;4.78;;;22.90;99.90;;;;;;4952338;28;20224;-86
2021/09/05 10:24:52;;;;;;;7.90;4.65;;;22.80;99.90;;;;;;4984815;28;20654;-87
2021/09/05 10:27:32;;;;;;;8.10;5.22;;;23.60;99.90;;;;;;4983885;28;20216;-86
2021/09/05 10:30:08;;;;;;;12.18;5.47;;;23.40;99.90;;;;;;4968098;28;20224;-88
2021/09/05 10:32:54;;;;;;;12.35;5.55;;;22.30;99.90;;;;;;4968945;28;20227;-87
2021/09/05 10:35:26;;;;;;;15.68;5.13;;;22.00;99.90;;;;;;4967838;28;20335;-89
2021/09/05 10:41:06;;;;;;;9.95;5.93;;;22.70;99.90;;;;;;4969128;28;20239;-89
2021/09/05 10:43:48;;;;;;;9.68;5.70;;;22.90;99.90;;;;;;4966738;28;20241;-88
2021/09/05 10:46:19;;;;;;;15.10;6.88;;;22.00;99.90;;;;;;4967237;28;20267;-87
2021/09/05 10:49:05;;;;;;;11.50;5.90;;;21.40;99.90;;;;;;4968979;28;20196;-87
2021/09/05 10:51:39;;;;;;;18.35;6.40;;;21.50;99.90;;;;;;4968160;28;20224;-87
2021/09/05 10:54:26;;;;;;;13.48;7.72;;;22.10;99.90;;;;;;4966560;28;20212;-89
2021/09/05 10:56:53;;;;;;;13.70;6.40;;;22.50;99.90;;;;;;4983879;28;20224;-87
2021/09/05 10:59:23;;;;;;;8.35;5.10;;;22.40;99.90;;;;;;4983335;28;20220;-87
2021/09/05 11:01:49;;;;;;;8.52;5.80;;;22.60;99.90;;;;;;4967568;28;20593;-90
2021/09/05 11:04:15;;;;;;;9.27;4.07;;;22.80;99.90;;;;;;4968294;28;20643;-88
2021/09/05 11:06:52;;;;;;;11.68;5.07;;;22.50;99.90;;;;;;4985547;28;20196;-89
2021/09/05 11:09:21;;;;;;;8.70;4.75;;;22.20;99.90;;;;;;4968103;28;20563;-90
2021/09/05 11:12:15;;;;;;;13.70;6.55;;;22.20;99.90;;;;;;4966471;28;20221;-87
2021/09/05 11:14:45;;;;;;;8.32;5.60;;;22.60;99.90;;;;;;4967378;28;20224;-88
2021/09/05 11:17:12;;;;;;;7.05;3.78;;;22.50;99.90;;;;;;4983334;28;20303;-91
2021/09/05 11:19:47;;;;;;;7.72;5.32;;;22.00;99.90;;;;;;4967353;28;20224;-87
2021/09/05 11:22:18;;;;;;;10.93;5.85;;;22.10;99.90;;;;;;4984021;28;20271;-88
2021/09/05 11:24:45;;;;;;;10.23;4.65;;;22.20;99.90;;;;;;4968797;28;20243;-88
2021/09/05 11:27:13;;;;;;;7.25;4.25;;;21.60;99.90;;;;;;4967207;28;20291;-86
2021/09/05 11:29:40;;;;;;;11.68;5.85;;;21.10;99.90;;;;;;4967378;28;20267;-87
2021/09/05 11:32:11;;;;;;;11.00;6.30;;;21.00;99.90;;;;;;4983442;28;20232;-88
2021/09/05 11:34:38;;;;;;;9.43;5.13;;;21.40;99.90;;;;;;4967312;28;20236;-87
2021/09/05 11:37:05;;;;;;;9.73;5.35;;;22.10;99.90;;;;;;4983361;28;20227;-89
2021/09/05 11:39:31;;;;;;;10.35;5.45;;;22.30;99.90;;;;;;4968103;28;20181;-88
2021/09/05 11:41:59;;;;;;;8.85;5.25;;;21.80;99.90;;;;;;4982911;28;20352;-88
2021/09/05 11:44:35;;;;;;;10.27;5.03;;;21.50;99.90;;;;;;4983773;28;20298;-89
2021/09/05 11:47:12;;;;;;;11.00;4.85;;;21.20;99.90;;;;;;4967856;28;20216;-90
2021/09/05 11:49:53;;;;;;;12.38;5.50;;;20.80;99.90;;;;;;4967037;28;20220;-88
2021/09/05 11:52:33;;;;;;;13.38;5.15;;;21.20;99.90;;;;;;4967329;28;20247;-88
2021/09/05 11:55:13;;;;;;;7.60;4.97;;;21.30;99.90;;;;;;4982183;28;20247;-87
2021/09/05 11:57:57;;;;;;;9.73;5.67;;;21.60;99.90;;;;;;4983782;28;20189;-89
2021/09/05 12:00:41;;;;;;;8.05;4.85;;;21.30;99.90;;;;;;4968531;28;20240;-89
2021/09/05 12:03:09;;;;;;;11.80;5.32;;;21.10;99.90;;;;;;4982855;28;20271;-90
2021/09/05 12:05:36;;;;;;;10.33;6.00;;;21.40;99.90;;;;;;4982453;28;20440;-89
2021/09/05 12:08:03;;;;;;;10.73;5.83;;;21.30;99.90;;;;;;4966466;28;20221;-90
2021/09/05 12:10:31;;;;;;;9.60;5.73;;;21.30;99.90;;;;;;4966705;28;20231;-89
2021/09/05 12:13:06;;;;;;;11.05;5.82;;;21.50;99.90;;;;;;4967173;28;20201;-90
2021/09/05 12:15:39;;;;;;;11.25;5.82;;;21.50;99.90;;;;;;4983661;28;20208;-90
2021/09/05 12:18:18;;;;;;;11.03;4.93;;;21.50;99.90;;;;;;4968640;28;20228;-88
2021/09/05 12:20:56;;;;;;;12.03;6.10;;;21.20;99.90;;;;;;4967478;28;20274;-88
2021/09/05 12:23:29;;;;;;;8.27;4.23;;;21.00;99.90;;;;;;4966325;28;20673;-89
2021/09/05 12:25:58;;;;;;;12.87;5.77;;;21.10;99.90;;;;;;4963383;28;20216;-90
2021/09/05 12:28:29;;;;;;;10.97;5.93;;;21.20;99.90;;;;;;4963692;28;20220;-88
2021/09/05 12:30:57;;;;;;;10.83;5.70;;;21.40;99.90;;;;;;4979881;28;20518;-88
2021/09/05 12:33:26;;;;;;;15.17;6.03;;;21.20;99.90;;;;;;4982020;28;20713;-92
2021/09/05 12:36:14;;;;;;;9.33;5.57;;;21.00;99.90;;;;;;4967292;28;20224;-90
2021/09/05 12:38:40;;;;;;;11.83;5.90;;;21.00;99.90;;;;;;4982298;28;20224;-89
2021/09/05 12:41:18;;;;;;;12.37;6.53;;;20.50;99.90;;;;;;4965536;28;20248;-89
2021/09/05 12:43:54;;;;;;;9.60;5.90;;;20.50;99.90;;;;;;4966217;28;20225;-89
2021/09/05 12:46:35;;;;;;;9.10;5.47;;;20.60;99.90;;;;;;4967608;28;20291;-92
2021/09/05 12:49:15;;;;;;;10.60;5.57;;;20.60;99.90;;;;;;4967370;28;20191;-89